createdAt,value
2017-12-29T00:01:15.070Z,2.13
2017-12-29T00:03:42.713Z,2.40
2017-12-29T00:06:11.274Z,2.13
2017-12-29T00:08:39.094Z,2.10
2017-12-29T00:11:06.680Z,2.07
2017-12-29T00:13:34.251Z,2.23
2017-12-29T00:16:01.873Z,1.87
2017-12-29T00:18:29.483Z,2.10
2017-12-29T00:20:57.106Z,2.83
2017-12-29T00:23:24.675Z,2.80
2017-12-29T00:25:52.298Z,1.60
2017-12-29T00:28:19.882Z,1.50
2017-12-29T00:30:47.518Z,1.67
2017-12-29T00:33:15.242Z,1.50
2017-12-29T00:35:43.115Z,1.97
2017-12-29T00:38:10.813Z,1.30
2017-12-29T00:40:38.389Z,1.27
2017-12-29T00:43:05.996Z,2.53
2017-12-29T00:45:33.567Z,1.50
2017-12-29T00:48:01.175Z,1.53
2017-12-29T00:50:28.794Z,1.30
2017-12-29T00:52:56.745Z,1.33
2017-12-29T00:55:24.434Z,1.63
2017-12-29T00:57:52.836Z,1.60
2017-12-29T01:00:20.558Z,1.77
2017-12-29T01:02:48.139Z,1.57
2017-12-29T01:05:15.720Z,1.80
2017-12-29T01:07:43.380Z,1.20
2017-12-29T01:10:10.952Z,2.07
2017-12-29T01:12:38.612Z,1.53
2017-12-29T01:15:06.191Z,1.63
2017-12-29T01:17:33.780Z,1.63
2017-12-29T01:20:01.425Z,1.17
2017-12-29T01:22:28.993Z,1.50
2017-12-29T01:24:56.614Z,1.47
2017-12-29T01:27:24.206Z,1.40
2017-12-29T01:29:51.771Z,1.40
2017-12-29T01:32:19.393Z,1.90
2017-12-29T01:34:47.033Z,1.93
2017-12-29T01:37:14.680Z,2.10
2017-12-29T01:39:42.270Z,1.63
2017-12-29T01:42:09.970Z,2.03
2017-12-29T01:44:37.642Z,1.63
2017-12-29T01:47:05.285Z,2.20
2017-12-29T01:49:32.873Z,2.00
2017-12-29T01:52:00.486Z,1.97
2017-12-29T01:54:28.114Z,2.07
2017-12-29T01:56:55.732Z,1.97
2017-12-29T01:59:23.344Z,1.80
2017-12-29T02:01:50.916Z,2.10
2017-12-29T02:04:18.548Z,2.53
2017-12-29T02:06:46.139Z,1.87
2017-12-29T02:09:13.714Z,1.83
2017-12-29T02:11:42.145Z,1.43
2017-12-29T02:14:09.737Z,1.50
2017-12-29T02:16:37.347Z,1.77
2017-12-29T02:19:04.920Z,1.53
2017-12-29T02:21:32.545Z,2.00
2017-12-29T02:24:00.117Z,1.40
2017-12-29T02:26:27.689Z,1.50
2017-12-29T02:28:55.316Z,2.03
2017-12-29T02:31:22.888Z,1.90
2017-12-29T02:33:50.498Z,1.97
2017-12-29T02:36:18.121Z,2.00
2017-12-29T02:38:45.702Z,2.30
2017-12-29T02:41:13.314Z,2.67
2017-12-29T02:43:40.962Z,2.83
2017-12-29T02:46:08.534Z,3.43
2017-12-29T02:48:36.107Z,3.27
2017-12-29T02:51:04.471Z,3.23
2017-12-29T02:53:32.045Z,3.10
2017-12-29T02:55:59.671Z,3.03
2017-12-29T02:58:27.410Z,3.13
2017-12-29T03:00:54.982Z,4.00
2017-12-29T03:03:22.548Z,3.10
2017-12-29T03:05:50.207Z,2.63
2017-12-29T03:08:17.766Z,2.70
2017-12-29T03:10:45.404Z,3.30
2017-12-29T03:13:12.984Z,2.87
2017-12-29T03:15:40.599Z,2.90
2017-12-29T03:18:08.940Z,2.80
2017-12-29T03:20:36.551Z,2.87
2017-12-29T03:23:04.122Z,3.63
2017-12-29T03:25:31.691Z,3.33
2017-12-29T03:27:59.392Z,3.70
2017-12-29T03:30:26.975Z,4.50
2017-12-29T03:32:54.565Z,5.27
2017-12-29T03:35:22.162Z,5.67
2017-12-29T03:37:49.875Z,5.93
2017-12-29T03:40:18.211Z,7.77
2017-12-29T03:42:45.788Z,8.63
2017-12-29T03:45:13.408Z,8.97
2017-12-29T03:47:40.985Z,8.43
2017-12-29T03:50:08.656Z,9.23
2017-12-29T03:52:37.078Z,10.40
2017-12-29T03:55:05.460Z,10.10
2017-12-29T03:57:33.812Z,9.73
2017-12-29T04:00:01.433Z,10.07
2017-12-29T04:02:29.011Z,9.97
2017-12-29T04:04:56.588Z,10.77
2017-12-29T04:07:24.217Z,10.60
2017-12-29T04:09:51.845Z,10.53
2017-12-29T04:12:19.417Z,9.13
2017-12-29T04:14:47.101Z,10.93
2017-12-29T04:17:14.725Z,10.40
2017-12-29T04:19:43.112Z,10.60
2017-12-29T04:22:11.448Z,9.87
2017-12-29T04:24:39.067Z,10.43
2017-12-29T04:27:06.681Z,9.97
2017-12-29T04:29:34.336Z,10.23
2017-12-29T04:32:01.957Z,10.73
2017-12-29T04:34:29.532Z,10.27
2017-12-29T04:36:57.275Z,11.47
2017-12-29T04:39:24.848Z,12.37
2017-12-29T04:41:52.427Z,12.80
2017-12-29T04:44:20.079Z,10.60
2017-12-29T04:46:47.691Z,13.13
2017-12-29T04:49:15.312Z,11.63
2017-12-29T04:51:43.076Z,12.40
2017-12-29T04:54:10.787Z,12.83
2017-12-29T04:56:38.428Z,13.00
2017-12-29T04:59:06.030Z,13.23
2017-12-29T05:01:33.649Z,13.37
2017-12-29T05:04:01.323Z,12.77
2017-12-29T05:06:29.688Z,13.63
2017-12-29T05:08:57.262Z,12.80
2017-12-29T05:11:24.868Z,12.53
2017-12-29T05:13:52.454Z,10.60
2017-12-29T05:16:20.069Z,10.83
2017-12-29T05:18:47.697Z,10.37
2017-12-29T05:21:15.390Z,9.87
2017-12-29T05:23:43.762Z,9.83
2017-12-29T05:26:12.100Z,9.97
2017-12-29T05:28:39.893Z,9.07
2017-12-29T05:31:07.509Z,9.90
2017-12-29T05:33:35.138Z,9.40
2017-12-29T05:36:03.523Z,9.33
2017-12-29T05:38:31.104Z,9.03
2017-12-29T05:40:58.736Z,8.23
2017-12-29T05:43:27.075Z,9.17
2017-12-29T05:45:54.764Z,8.40
2017-12-29T05:48:22.352Z,9.30
2017-12-29T05:50:49.982Z,8.13
2017-12-29T05:53:17.555Z,8.03
2017-12-29T05:55:45.914Z,8.30
2017-12-29T05:58:13.547Z,8.80
2017-12-29T06:00:41.179Z,8.97
2017-12-29T06:03:08.797Z,8.97
2017-12-29T06:05:36.400Z,8.87
2017-12-29T06:08:04.125Z,7.97
2017-12-29T06:10:31.755Z,7.47
2017-12-29T06:12:59.373Z,8.80
2017-12-29T06:15:27.775Z,7.73
2017-12-29T06:17:55.349Z,7.90
2017-12-29T06:20:22.959Z,8.07
2017-12-29T06:22:50.603Z,8.23
2017-12-29T06:25:18.216Z,8.30
2017-12-29T06:27:45.792Z,9.10
2017-12-29T06:30:13.417Z,9.23
2017-12-29T06:32:41.761Z,8.83
2017-12-29T06:35:09.421Z,8.97
2017-12-29T06:37:37.031Z,9.33
2017-12-29T06:40:05.410Z,10.47
2017-12-29T06:42:33.805Z,9.57
2017-12-29T06:45:01.429Z,8.70
2017-12-29T06:47:29.032Z,10.43
2017-12-29T06:49:56.647Z,10.37
2017-12-29T06:52:24.254Z,10.10
2017-12-29T06:54:51.892Z,10.87
2017-12-29T06:57:19.463Z,10.37
2017-12-29T06:59:47.803Z,11.50
2017-12-29T07:02:15.435Z,10.43
2017-12-29T07:04:43.014Z,10.20
2017-12-29T07:07:10.627Z,9.97
2017-12-29T07:09:38.211Z,10.47
2017-12-29T07:12:05.857Z,11.13
2017-12-29T07:14:33.467Z,11.03
2017-12-29T07:17:01.083Z,10.57
2017-12-29T07:19:28.709Z,11.83
2017-12-29T07:21:56.300Z,10.43
2017-12-29T07:24:24.148Z,11.13
2017-12-29T07:26:52.000Z,13.17
2017-12-29T07:29:19.575Z,13.80
2017-12-29T07:31:47.199Z,14.37
2017-12-29T07:34:14.776Z,12.53
2017-12-29T07:36:42.449Z,13.80
2017-12-29T07:39:10.014Z,15.00
2017-12-29T07:41:37.600Z,15.13
2017-12-29T07:44:05.239Z,15.87
2017-12-29T07:46:32.826Z,15.20
2017-12-29T07:49:00.480Z,15.30
2017-12-29T07:51:28.112Z,16.47
2017-12-29T07:53:55.739Z,16.43
2017-12-29T07:56:23.322Z,15.70
2017-12-29T07:58:50.983Z,15.07
2017-12-29T08:01:18.612Z,17.23
2017-12-29T08:03:46.274Z,15.83
2017-12-29T08:06:16.467Z,17.13
2017-12-29T08:08:45.856Z,18.33
2017-12-29T08:11:13.472Z,19.67
2017-12-29T08:13:41.179Z,19.07
2017-12-29T08:16:08.827Z,19.77
2017-12-29T08:18:36.434Z,18.77
2017-12-29T08:21:04.009Z,19.97
2017-12-29T08:23:31.691Z,19.77
2017-12-29T08:25:59.275Z,19.37
2017-12-29T08:28:26.947Z,20.30
2017-12-29T08:30:54.531Z,22.23
2017-12-29T08:33:22.891Z,21.47
2017-12-29T08:35:50.506Z,21.77
2017-12-29T08:38:18.084Z,23.60
2017-12-29T08:40:45.719Z,22.97
2017-12-29T08:43:13.320Z,23.23
2017-12-29T08:45:40.906Z,22.10
2017-12-29T08:48:08.538Z,22.37
2017-12-29T08:50:36.121Z,21.30
2017-12-29T08:53:03.742Z,23.70
2017-12-29T08:55:31.317Z,22.17
2017-12-29T08:57:58.935Z,23.93
2017-12-29T09:00:26.557Z,23.50
2017-12-29T09:02:54.171Z,22.70
2017-12-29T09:05:21.754Z,23.47
2017-12-29T09:07:49.768Z,21.10
2017-12-29T09:10:18.124Z,23.67
2017-12-29T09:12:45.712Z,23.27
2017-12-29T09:15:13.337Z,23.63
2017-12-29T09:17:40.923Z,22.33
2017-12-29T09:20:08.539Z,23.37
2017-12-29T09:22:36.127Z,23.37
2017-12-29T09:25:03.770Z,22.63
2017-12-29T09:27:31.345Z,23.07
2017-12-29T09:29:58.977Z,22.50
2017-12-29T09:32:26.592Z,22.90
2017-12-29T09:34:54.216Z,21.93
2017-12-29T09:37:21.804Z,22.23
2017-12-29T09:39:49.425Z,21.67
2017-12-29T09:42:17.041Z,20.60
2017-12-29T09:44:44.622Z,21.60
2017-12-29T09:47:12.246Z,20.97
2017-12-29T09:49:39.838Z,22.23
2017-12-29T09:52:07.419Z,20.40
2017-12-29T09:54:35.051Z,20.00
2017-12-29T09:57:02.648Z,20.97
2017-12-29T09:59:30.228Z,20.43
2017-12-29T10:01:57.859Z,20.23
2017-12-29T10:04:25.446Z,19.93
2017-12-29T10:06:53.030Z,20.03
2017-12-29T10:09:20.656Z,20.43
2017-12-29T10:11:48.240Z,19.07
2017-12-29T10:14:15.850Z,17.87
2017-12-29T10:16:43.456Z,20.07
2017-12-29T10:19:11.035Z,18.13
2017-12-29T10:21:38.687Z,18.93
2017-12-29T10:24:06.306Z,18.97
2017-12-29T10:26:33.887Z,17.30
2017-12-29T10:29:01.506Z,19.00
2017-12-29T10:31:29.207Z,16.37
2017-12-29T10:33:56.841Z,17.07
2017-12-29T10:36:24.421Z,15.73
2017-12-29T10:38:52.013Z,14.90
2017-12-29T10:41:19.638Z,14.97
2017-12-29T10:43:47.986Z,15.13
2017-12-29T10:46:15.614Z,14.40
2017-12-29T10:48:43.191Z,15.47
2017-12-29T10:51:10.798Z,14.77
2017-12-29T10:53:38.426Z,13.00
2017-12-29T10:56:06.094Z,13.90
2017-12-29T10:58:33.675Z,15.23
2017-12-29T11:01:02.031Z,13.13
2017-12-29T11:03:29.656Z,12.63
2017-12-29T11:05:57.228Z,11.90
2017-12-29T11:08:24.841Z,12.20
2017-12-29T11:10:52.425Z,11.87
2017-12-29T11:13:20.054Z,12.80
2017-12-29T11:15:47.643Z,11.10
2017-12-29T11:18:15.224Z,10.87
2017-12-29T11:20:42.835Z,11.20
2017-12-29T11:23:10.406Z,10.27
2017-12-29T11:25:38.785Z,10.93
2017-12-29T11:28:07.169Z,9.90
2017-12-29T11:30:35.551Z,9.77
2017-12-29T11:33:03.885Z,9.33
2017-12-29T11:35:31.499Z,9.47
2017-12-29T11:37:59.068Z,9.23
2017-12-29T11:40:26.707Z,8.50
2017-12-29T11:42:54.291Z,10.73
2017-12-29T11:45:21.860Z,10.30
2017-12-29T11:47:49.481Z,8.40
2017-12-29T11:50:17.101Z,9.00
2017-12-29T11:52:44.761Z,8.30
2017-12-29T11:55:12.382Z,10.37
2017-12-29T11:57:40.006Z,10.03
2017-12-29T12:00:07.578Z,9.50
2017-12-29T12:02:35.199Z,10.23
2017-12-29T12:05:02.770Z,9.27
2017-12-29T12:07:30.385Z,10.00
2017-12-29T12:09:58.011Z,10.13
2017-12-29T12:12:25.603Z,10.30
2017-12-29T12:14:53.176Z,11.10
2017-12-29T12:17:21.563Z,12.80
2017-12-29T12:19:49.183Z,11.17
2017-12-29T12:22:16.814Z,10.97
2017-12-29T12:24:44.439Z,11.17
2017-12-29T12:27:14.535Z,10.50
2017-12-29T12:29:42.915Z,10.83
2017-12-29T12:32:10.534Z,12.60
2017-12-29T12:34:38.145Z,12.13
2017-12-29T12:37:05.733Z,11.70
2017-12-29T12:39:33.359Z,12.47
2017-12-29T12:42:00.944Z,13.13
2017-12-29T12:44:28.560Z,13.00
2017-12-29T12:46:56.187Z,13.23
2017-12-29T12:49:23.769Z,11.87
2017-12-29T12:51:51.379Z,12.93
2017-12-29T12:54:18.962Z,13.03
2017-12-29T12:56:46.591Z,13.27
2017-12-29T12:59:14.209Z,12.50
2017-12-29T13:01:41.820Z,11.37
2017-12-29T13:04:09.460Z,11.17
2017-12-29T13:06:37.041Z,11.93
2017-12-29T13:09:04.620Z,10.57
2017-12-29T13:11:33.010Z,9.63
2017-12-29T13:14:00.623Z,10.87
2017-12-29T13:16:28.244Z,10.17
2017-12-29T13:18:55.866Z,10.10
2017-12-29T13:21:23.484Z,9.63
2017-12-29T13:23:51.063Z,8.83
2017-12-29T13:26:18.677Z,9.53
2017-12-29T13:28:46.251Z,9.80
2017-12-29T13:31:13.861Z,9.90
2017-12-29T13:33:41.449Z,8.50
2017-12-29T13:36:09.060Z,8.47
2017-12-29T13:38:36.673Z,7.93
2017-12-29T13:41:04.256Z,8.03
2017-12-29T13:43:31.886Z,7.50
2017-12-29T13:45:59.460Z,7.37
2017-12-29T13:48:29.948Z,6.10
2017-12-29T13:50:57.560Z,6.57
2017-12-29T13:53:25.144Z,6.03
2017-12-29T13:55:52.763Z,6.30
2017-12-29T13:58:21.143Z,6.20
2017-12-29T14:00:49.492Z,6.60
2017-12-29T14:03:17.102Z,6.90
2017-12-29T14:05:44.678Z,5.93
2017-12-29T14:08:12.296Z,5.97
2017-12-29T14:10:42.538Z,6.90
2017-12-29T14:13:10.112Z,6.17
2017-12-29T14:15:37.728Z,6.73
2017-12-29T14:18:05.347Z,6.90
2017-12-29T14:20:32.911Z,5.53
2017-12-29T14:23:00.526Z,6.90
2017-12-29T14:25:28.136Z,6.60
2017-12-29T14:27:55.752Z,6.40
2017-12-29T14:30:23.378Z,6.87
2017-12-29T14:32:50.982Z,6.20
2017-12-29T14:35:18.547Z,5.83
2017-12-29T14:37:46.929Z,6.10
2017-12-29T14:40:15.259Z,6.37
2017-12-29T14:42:42.876Z,6.00
2017-12-29T14:45:10.443Z,5.80
2017-12-29T14:47:38.012Z,5.60
2017-12-29T14:50:05.619Z,5.40
2017-12-29T14:52:33.193Z,5.77
2017-12-29T14:55:00.805Z,5.37
2017-12-29T14:57:28.375Z,4.90
2017-12-29T14:59:55.988Z,5.67
2017-12-29T15:02:23.556Z,5.73
2017-12-29T15:04:51.132Z,6.00
2017-12-29T15:07:18.749Z,4.23
2017-12-29T15:09:46.359Z,4.70
2017-12-29T15:12:13.999Z,5.13
2017-12-29T15:14:42.487Z,4.93
2017-12-29T15:17:10.821Z,4.33
2017-12-29T15:19:38.392Z,4.57
2017-12-29T15:22:06.002Z,4.57
2017-12-29T15:24:33.573Z,4.93
2017-12-29T15:27:01.183Z,5.10
2017-12-29T15:29:28.782Z,3.93
2017-12-29T15:31:56.391Z,3.97
2017-12-29T15:34:24.017Z,4.87
2017-12-29T15:36:51.636Z,4.53
2017-12-29T15:39:19.260Z,4.10
2017-12-29T15:41:46.895Z,4.20
2017-12-29T15:44:14.459Z,4.10
2017-12-29T15:46:42.066Z,4.03
2017-12-29T15:49:09.677Z,4.03
2017-12-29T15:51:37.290Z,4.23
2017-12-29T15:54:05.893Z,4.70
2017-12-29T15:56:35.002Z,3.77
2017-12-29T15:59:02.618Z,4.03
2017-12-29T16:01:37.123Z,3.77
2017-12-29T16:04:07.726Z,4.13
2017-12-29T16:06:37.183Z,3.90
2017-12-29T16:09:04.855Z,3.93
2017-12-29T16:11:32.425Z,3.90
2017-12-29T16:14:00.056Z,3.93
2017-12-29T16:16:27.628Z,4.03
2017-12-29T16:18:55.187Z,4.27
2017-12-29T16:21:22.794Z,4.07
2017-12-29T16:23:50.398Z,4.30
2017-12-29T16:26:17.968Z,4.00
2017-12-29T16:28:45.587Z,4.83
2017-12-29T16:31:13.155Z,4.50
2017-12-29T16:33:40.729Z,4.90
2017-12-29T16:36:08.337Z,4.47
2017-12-29T16:38:35.960Z,5.10
2017-12-29T16:41:03.534Z,5.03
2017-12-29T16:43:31.117Z,5.00
2017-12-29T16:45:58.731Z,5.30
2017-12-29T16:48:26.347Z,5.73
2017-12-29T16:50:53.962Z,5.60
2017-12-29T16:53:21.617Z,5.23
2017-12-29T16:55:49.167Z,5.73
2017-12-29T16:58:16.780Z,6.00
2017-12-29T17:00:44.347Z,6.10
2017-12-29T17:03:11.954Z,5.43
2017-12-29T17:05:39.518Z,5.97
2017-12-29T17:08:07.154Z,5.60
2017-12-29T17:10:34.760Z,6.80
2017-12-29T17:13:02.333Z,5.93
2017-12-29T17:15:29.952Z,6.23
2017-12-29T17:17:57.702Z,5.67
2017-12-29T17:20:25.278Z,6.00
2017-12-29T17:22:52.847Z,6.40
2017-12-29T17:25:20.507Z,6.50
2017-12-29T17:27:48.822Z,6.03
2017-12-29T17:30:16.425Z,6.43
2017-12-29T17:32:44.043Z,6.63
2017-12-29T17:35:11.608Z,6.17
2017-12-29T17:37:39.221Z,6.37
2017-12-29T17:40:06.805Z,6.23
2017-12-29T17:42:34.430Z,9.47
2017-12-29T17:45:02.045Z,6.00
2017-12-29T17:47:29.656Z,5.47
2017-12-29T17:49:57.271Z,6.43
2017-12-29T17:52:24.841Z,5.77
2017-12-29T17:54:52.454Z,5.87
2017-12-29T17:57:20.069Z,5.60
2017-12-29T17:59:47.636Z,6.13
2017-12-29T18:02:15.533Z,6.67
2017-12-29T18:04:43.107Z,6.00
2017-12-29T18:07:10.717Z,6.53
2017-12-29T18:09:38.290Z,6.53
2017-12-29T18:12:05.895Z,6.20
2017-12-29T18:14:33.508Z,6.67
2017-12-29T18:17:01.088Z,6.13
2017-12-29T18:19:29.416Z,6.70
2017-12-29T18:21:57.021Z,6.93
2017-12-29T18:24:24.596Z,6.60
2017-12-29T18:26:52.223Z,6.33
2017-12-29T18:29:19.795Z,6.07
2017-12-29T18:31:47.363Z,7.07
2017-12-29T18:34:15.746Z,6.87
2017-12-29T18:36:44.083Z,6.70
2017-12-29T18:39:11.687Z,6.60
2017-12-29T18:41:39.295Z,6.40
2017-12-29T18:44:06.860Z,6.33
2017-12-29T18:46:34.472Z,6.63
2017-12-29T18:49:02.035Z,7.00
2017-12-29T18:51:30.402Z,7.53
2017-12-29T18:53:58.011Z,6.73
2017-12-29T18:56:25.628Z,6.77
2017-12-29T18:58:53.961Z,7.10
2017-12-29T19:01:21.721Z,6.87
2017-12-29T19:03:49.344Z,7.33
2017-12-29T19:06:16.909Z,7.30
2017-12-29T19:08:44.484Z,7.93
2017-12-29T19:11:12.095Z,7.60
2017-12-29T19:13:39.706Z,8.00
2017-12-29T19:16:07.310Z,7.87
2017-12-29T19:18:34.882Z,8.43
2017-12-29T19:21:02.506Z,8.27
2017-12-29T19:23:30.081Z,8.33
2017-12-29T19:25:57.697Z,8.67
2017-12-29T19:28:25.309Z,8.83
2017-12-29T19:30:52.888Z,9.70
2017-12-29T19:33:20.509Z,8.87
2017-12-29T19:35:48.128Z,9.90
2017-12-29T19:38:15.729Z,8.93
2017-12-29T19:40:43.356Z,9.53
2017-12-29T19:43:10.937Z,10.10
2017-12-29T19:45:38.542Z,10.27
2017-12-29T19:48:06.161Z,11.00
2017-12-29T19:50:33.730Z,10.27
2017-12-29T19:53:01.346Z,10.87
2017-12-29T19:55:28.933Z,11.97
2017-12-29T19:57:57.311Z,11.47
2017-12-29T20:00:25.706Z,11.13
2017-12-29T20:02:53.278Z,12.50
2017-12-29T20:05:20.901Z,14.00
2017-12-29T20:07:49.242Z,14.33
2017-12-29T20:10:16.862Z,14.77
2017-12-29T20:12:44.446Z,15.83
2017-12-29T20:15:12.066Z,17.00
2017-12-29T20:17:39.687Z,17.03
2017-12-29T20:20:07.260Z,18.20
2017-12-29T20:22:34.878Z,18.17
2017-12-29T20:25:02.454Z,18.83
2017-12-29T20:27:30.081Z,18.77
2017-12-29T20:29:57.662Z,17.90
2017-12-29T20:32:25.277Z,20.73
2017-12-29T20:34:52.918Z,20.27
2017-12-29T20:37:20.496Z,21.07
2017-12-29T20:39:48.071Z,21.67
2017-12-29T20:42:15.690Z,21.20
2017-12-29T20:44:43.272Z,21.50
2017-12-29T20:47:10.885Z,22.33
2017-12-29T20:49:38.521Z,22.90
2017-12-29T20:52:06.930Z,22.53
2017-12-29T20:54:34.508Z,22.70
2017-12-29T20:57:02.080Z,21.90
2017-12-29T20:59:29.700Z,22.97
2017-12-29T21:01:57.279Z,23.23
2017-12-29T21:04:24.927Z,23.67
2017-12-29T21:06:52.526Z,23.73
2017-12-29T21:09:20.120Z,23.63
2017-12-29T21:11:48.503Z,25.13
2017-12-29T21:14:16.845Z,25.60
2017-12-29T21:16:44.456Z,25.00
2017-12-29T21:19:12.044Z,25.87
2017-12-29T21:21:39.654Z,25.13
2017-12-29T21:24:07.232Z,25.67
2017-12-29T21:26:35.631Z,25.43
2017-12-29T21:29:03.979Z,26.43
2017-12-29T21:31:31.614Z,27.57
2017-12-29T21:33:59.584Z,26.83
2017-12-29T21:36:27.339Z,27.33
2017-12-29T21:38:54.947Z,28.87
2017-12-29T21:41:22.527Z,28.97
2017-12-29T21:43:50.929Z,28.30
2017-12-29T21:46:18.512Z,27.53
2017-12-29T21:48:46.095Z,28.47
2017-12-29T21:51:13.724Z,27.77
2017-12-29T21:53:41.309Z,27.93
2017-12-29T21:56:08.919Z,27.40
2017-12-29T21:58:36.538Z,28.37
2017-12-29T22:01:04.167Z,28.40
2017-12-29T22:03:31.789Z,27.50
2017-12-29T22:06:00.175Z,28.83
2017-12-29T22:08:28.524Z,29.60
2017-12-29T22:10:56.149Z,29.07
2017-12-29T22:13:23.732Z,29.53
2017-12-29T22:15:51.351Z,28.97
2017-12-29T22:18:18.971Z,28.40
2017-12-29T22:20:46.575Z,29.47
2017-12-29T22:23:14.160Z,28.80
2017-12-29T22:25:41.780Z,29.00
2017-12-29T22:28:10.178Z,28.53
2017-12-29T22:30:37.762Z,27.13
2017-12-29T22:33:05.335Z,27.93
2017-12-29T22:35:32.946Z,27.73
2017-12-29T22:38:00.524Z,27.87
2017-12-29T22:40:28.164Z,26.77
2017-12-29T22:42:55.745Z,27.43
2017-12-29T22:45:23.326Z,27.00
2017-12-29T22:47:50.954Z,27.03
2017-12-29T22:50:19.351Z,26.63
2017-12-29T22:52:46.932Z,26.83
2017-12-29T22:55:14.517Z,27.10
2017-12-29T22:57:42.132Z,28.03
2017-12-29T23:00:09.715Z,26.87
2017-12-29T23:02:37.347Z,28.30
2017-12-29T23:05:04.924Z,26.47
2017-12-29T23:07:32.513Z,28.40
2017-12-29T23:10:00.125Z,26.87
2017-12-29T23:12:27.700Z,27.23
2017-12-29T23:14:55.283Z,26.23
2017-12-29T23:17:22.906Z,27.30
2017-12-29T23:19:51.248Z,24.27
2017-12-29T23:22:18.860Z,26.20
2017-12-29T23:24:46.486Z,25.47
2017-12-29T23:27:14.050Z,24.13
2017-12-29T23:29:41.661Z,23.63
2017-12-29T23:32:09.245Z,22.27
2017-12-29T23:34:36.867Z,22.40
2017-12-29T23:37:04.446Z,21.47
2017-12-29T23:39:32.031Z,20.87
2017-12-29T23:42:00.596Z,21.23
2017-12-29T23:44:28.181Z,19.37
2017-12-29T23:46:56.067Z,19.07
2017-12-29T23:49:26.656Z,19.33
2017-12-29T23:51:55.289Z,19.27
2017-12-29T23:54:22.882Z,19.10
2017-12-29T23:56:50.492Z,17.70
2017-12-29T23:59:18.068Z,17.77
